Time;durP1;ratioP1;P1;durP2;ratioP2;P2;SDS_P1;SDS_P2;PMS_P1;PMS_P2;Temp;Humidity;BMP_temperature;BMP_pressure;BME280_temperature;BME280_humidity;BME280_pressure;Samples;Min_cycle;Max_cycle;Signal;HPM_P1;HPM_P2
2024/01/15 00:00:19;;;;;;;40.42;16.60;;;5.20;66.60;;;-0.10;100.00;94495.25;4932723;29;20023;-50
2024/01/15 00:02:45;;;;;;;40.45;17.20;;;5.20;66.70;;;-0.12;100.00;94487.63;4934653;29;20023;-50
2024/01/15 00:05:11;;;;;;;44.72;18.08;;;5.20;66.70;;;-0.14;100.00;94484.44;4936701;29;20089;-52
2024/01/15 00:07:37;;;;;;;40.50;17.45;;;5.20;66.70;;;-0.15;100.00;94476.81;4938131;29;20026;-50
2024/01/15 00:10:03;;;;;;;43.05;16.90;;;5.20;66.70;;;-0.13;100.00;94480.78;4932532;29;20065;-49
2024/01/15 00:12:29;;;;;;;41.15;18.00;;;5.20;66.80;;;-0.11;100.00;94478.75;4936618;28;20023;-53
2024/01/15 00:14:55;;;;;;;43.88;17.50;;;5.20;66.90;;;-0.14;100.00;94463.47;4933760;28;20037;-50
2024/01/15 00:17:21;;;;;;;40.45;16.90;;;5.20;66.90;;;-0.13;100.00;94467.69;4933648;28;20045;-49
2024/01/15 00:19:47;;;;;;;44.17;18.40;;;5.20;66.90;;;-0.12;100.00;94468.50;4969236;23;20098;-53
2024/01/15 00:22:13;;;;;;;42.17;17.67;;;5.20;66.90;;;-0.11;100.00;94467.47;4971693;28;20104;-59
2024/01/15 00:24:38;;;;;;;44.60;17.98;;;5.20;66.90;;;-0.15;100.00;94458.50;4977038;28;20042;-54
2024/01/15 00:27:04;;;;;;;46.63;18.92;;;5.10;66.90;;;-0.16;100.00;94454.25;4972385;28;20105;-55
2024/01/15 00:29:30;;;;;;;45.78;17.50;;;5.10;66.90;;;-0.14;100.00;94454.84;4972544;28;20069;-55
2024/01/15 00:31:56;;;;;;;43.92;17.13;;;5.10;66.90;;;-0.12;100.00;94463.28;4991000;28;20030;-53
2024/01/15 00:34:22;;;;;;;45.08;19.00;;;5.10;67.00;;;-0.13;100.00;94467.69;4980737;28;20030;-53
2024/01/15 00:36:48;;;;;;;42.13;17.63;;;5.10;67.00;;;-0.12;100.00;94474.53;4989411;28;20014;-54
2024/01/15 00:39:14;;;;;;;41.45;18.35;;;5.10;67.10;;;-0.14;100.00;94479.19;4983771;28;20030;-54
2024/01/15 00:41:39;;;;;;;41.80;17.52;;;5.10;67.00;;;-0.15;100.00;94471.56;4979096;28;20029;-56
2024/01/15 00:44:05;;;;;;;47.42;18.90;;;5.10;67.10;;;-0.16;100.00;94470.75;4985772;28;20108;-55
2024/01/15 00:46:31;;;;;;;44.25;18.30;;;5.20;67.10;;;-0.16;100.00;94470.75;4981537;28;20093;-56
2024/01/15 00:48:57;;;;;;;41.92;18.15;;;5.20;67.10;;;-0.19;100.00;94468.59;4984386;28;20025;-55
2024/01/15 00:51:23;;;;;;;39.65;18.02;;;5.20;67.20;;;-0.18;100.00;94466.78;4987925;28;20459;-57
2024/01/15 00:53:48;;;;;;;43.33;16.63;;;5.10;67.10;;;-0.17;100.00;94471.00;4980085;28;20030;-53
2024/01/15 00:56:14;;;;;;;43.60;18.02;;;5.10;67.10;;;-0.19;100.00;94473.03;4988023;28;20056;-56
2024/01/15 00:58:40;;;;;;;43.53;17.75;;;5.10;67.10;;;-0.23;100.00;94470.06;4982481;28;20109;-56
2024/01/15 01:01:06;;;;;;;46.67;19.25;;;5.10;67.20;;;-0.21;100.00;94475.88;4980056;28;20410;-53
2024/01/15 01:03:32;;;;;;;42.60;18.70;;;5.10;67.20;;;-0.26;100.00;94463.44;4983912;28;20446;-56
2024/01/15 01:05:58;;;;;;;44.47;18.27;;;5.10;67.20;;;-0.25;100.00;94466.88;4984868;28;20014;-54
2024/01/15 01:08:23;;;;;;;43.08;18.20;;;5.10;67.30;;;-0.26;100.00;94468.69;4983184;28;20026;-54
2024/01/15 01:10:49;;;;;;;44.05;17.98;;;5.10;67.30;;;-0.28;100.00;94468.13;4982758;28;20192;-54
2024/01/15 01:13:15;;;;;;;37.78;17.15;;;5.10;67.30;;;-0.27;100.00;94467.09;4982927;28;20040;-56
2024/01/15 01:15:44;;;;;;;41.00;17.95;;;5.10;67.30;;;-0.26;100.00;94467.88;4985796;28;20018;-54
2024/01/15 01:18:10;;;;;;;40.75;17.02;;;5.10;67.40;;;-0.29;100.00;94481.44;4985744;28;20021;-55
2024/01/15 01:20:35;;;;;;;43.40;17.42;;;5.00;67.30;;;-0.35;100.00;94475.25;4984462;28;20046;-57
2024/01/15 01:23:01;;;;;;;36.65;15.82;;;5.00;67.30;;;-0.38;100.00;94478.31;4985218;28;20469;-58
2024/01/15 01:25:27;;;;;;;31.08;14.75;;;5.00;67.30;;;-0.40;100.00;94483.00;4985607;28;20053;-53
2024/01/15 01:27:53;;;;;;;32.33;15.73;;;5.00;67.40;;;-0.45;100.00;94476.84;4985258;28;20380;-55
2024/01/15 01:30:19;;;;;;;27.70;13.80;;;4.90;67.30;;;-0.45;100.00;94477.63;4972490;28;20595;-56
2024/01/15 01:32:45;;;;;;;30.33;14.88;;;4.90;67.20;;;-0.50;100.00;94477.50;4976834;28;20484;-54
2024/01/15 01:35:10;;;;;;;33.50;14.18;;;4.90;67.20;;;-0.51;100.00;94481.13;4981428;28;20056;-51
2024/01/15 01:37:36;;;;;;;24.02;12.18;;;4.90;67.20;;;-0.49;100.00;94482.50;4986011;28;20061;-53
2024/01/15 01:40:03;;;;;;;20.17;11.10;;;4.90;67.20;;;-0.55;100.00;94486.00;4985645;28;20454;-53
2024/01/15 01:42:28;;;;;;;20.20;11.70;;;4.80;67.20;;;-0.63;100.00;94491.53;4983864;28;20507;-52
2024/01/15 01:44:54;;;;;;;24.23;13.10;;;4.80;67.10;;;-0.64;100.00;94491.78;4985368;28;20116;-55
2024/01/15 01:47:20;;;;;;;24.83;11.68;;;4.80;67.10;;;-0.70;100.00;94496.84;4979350;28;20030;-54
2024/01/15 01:49:47;;;;;;;24.15;11.50;;;4.80;67.10;;;-0.74;100.00;94495.72;4983561;28;20539;-57
2024/01/15 01:52:14;;;;;;;23.23;11.75;;;4.70;67.00;;;-0.73;100.00;94501.75;4978047;28;20056;-52
2024/01/15 01:54:41;;;;;;;22.67;11.50;;;4.70;67.00;;;-0.75;100.00;94496.75;4984969;28;20044;-56
2024/01/15 01:57:08;;;;;;;22.98;11.85;;;4.70;67.00;;;-0.78;100.00;94493.78;4988576;28;20025;-53
2024/01/15 01:59:36;;;;;;;26.83;12.98;;;4.70;67.00;;;-0.80;100.00;94493.97;4978323;28;20101;-53
2024/01/15 02:02:04;;;;;;;28.58;12.88;;;4.70;66.90;;;-0.87;100.00;94505.53;4987675;28;20108;-54
2024/01/15 02:04:32;;;;;;;27.33;12.73;;;4.60;66.80;;;-0.95;100.00;94522.31;4982365;28;20025;-54
2024/01/15 02:07:00;;;;;;;26.85;12.55;;;4.60;66.80;;;-1.01;100.00;94523.97;4980309;28;20112;-55
2024/01/15 02:09:26;;;;;;;31.48;14.00;;;4.60;66.80;;;-1.02;100.00;94517.16;4983866;28;20046;-57
2024/01/15 02:11:52;;;;;;;32.00;13.82;;;4.60;66.80;;;-1.05;100.00;94516.81;4980117;28;20044;-54
2024/01/15 02:14:18;;;;;;;30.23;13.95;;;4.50;66.70;;;-1.09;100.00;94521.66;4983251;28;20463;-56
2024/01/15 02:16:44;;;;;;;31.20;14.52;;;4.40;66.70;;;-1.08;100.00;94525.06;4980679;28;20049;-53
2024/01/15 02:19:17;;;;;;;32.35;14.82;;;4.40;66.80;;;-1.12;100.00;94518.69;4979932;28;20436;-54
2024/01/15 02:21:43;;;;;;;29.52;14.05;;;4.40;66.80;;;-1.03;100.00;94520.00;4986220;28;20065;-53
2024/01/15 02:24:10;;;;;;;37.67;15.32;;;4.40;66.90;;;-1.10;100.00;94508.81;4986365;28;20060;-57
2024/01/15 02:26:38;;;;;;;38.35;16.13;;;4.40;66.90;;;-1.20;100.00;94504.09;4987136;28;20026;-54
2024/01/15 02:29:10;;;;;;;38.80;15.75;;;4.30;66.90;;;-1.27;100.00;94496.31;4977643;28;20458;-56
2024/01/15 02:31:38;;;;;;;34.22;15.05;;;4.30;66.90;;;-1.37;100.00;94497.84;4981002;28;20022;-56
2024/01/15 02:34:04;;;;;;;38.58;15.88;;;4.30;66.70;;;-1.35;100.00;94501.03;4980031;28;20435;-56
2024/01/15 02:36:30;;;;;;;38.70;16.27;;;4.20;66.70;;;-1.39;100.00;94495.44;4979994;28;20026;-56
2024/01/15 02:38:56;;;;;;;36.15;15.95;;;4.20;66.70;;;-1.44;100.00;94487.47;4987084;28;20022;-57
2024/01/15 02:41:22;;;;;;;40.22;17.20;;;4.10;66.60;;;-1.45;100.00;94491.06;4982954;28;20022;-55
2024/01/15 02:43:47;;;;;;;37.75;16.48;;;4.10;66.70;;;-1.40;100.00;94506.91;4984680;28;20040;-54
2024/01/15 02:46:13;;;;;;;33.03;15.43;;;4.10;66.80;;;-1.45;100.00;94501.53;4980316;28;20462;-57
2024/01/15 02:48:39;;;;;;;41.08;16.60;;;4.10;66.80;;;-1.48;100.00;94500.13;4981927;28;20044;-54
2024/01/15 02:51:05;;;;;;;40.83;16.20;;;4.10;66.90;;;-1.36;100.00;94515.91;4981078;28;20025;-54
2024/01/15 02:53:31;;;;;;;38.35;16.65;;;4.00;66.90;;;-1.43;100.00;94513.34;4980070;28;20033;-54
2024/01/15 02:55:57;;;;;;;45.22;19.17;;;4.00;67.00;;;-1.39;100.00;94516.34;4987296;28;20161;-55
2024/01/15 02:58:22;;;;;;;38.95;15.68;;;4.00;66.90;;;-1.39;100.00;94508.50;4983748;28;20057;-54
2024/01/15 03:00:48;;;;;;;44.17;16.73;;;4.00;67.00;;;-1.33;100.00;94515.47;4981559;28;20037;-53
2024/01/15 03:03:14;;;;;;;38.10;16.20;;;4.10;67.10;;;-1.33;100.00;94507.63;4983076;28;20029;-55
2024/01/15 03:05:40;;;;;;;43.33;17.38;;;4.00;67.00;;;-1.30;100.00;94501.19;4981661;28;20049;-56
2024/01/15 03:08:06;;;;;;;38.38;16.42;;;4.10;67.10;;;-1.29;100.00;94498.34;4982028;28;20037;-55
2024/01/15 03:10:32;;;;;;;39.10;16.23;;;4.10;67.20;;;-1.27;100.00;94495.53;4980031;28;20069;-54
2024/01/15 03:12:58;;;;;;;36.03;16.58;;;4.10;67.10;;;-1.31;100.00;94487.31;4983002;28;20436;-51
2024/01/15 03:15:23;;;;;;;46.45;17.67;;;4.10;67.10;;;-1.28;100.00;94484.28;4987064;28;20126;-54
2024/01/15 03:17:49;;;;;;;37.25;16.13;;;4.00;67.00;;;-1.31;100.00;94489.16;4980140;28;20033;-54
2024/01/15 03:20:15;;;;;;;41.78;15.82;;;4.00;66.90;;;-1.29;100.00;94487.09;4985767;28;20050;-54
2024/01/15 03:22:41;;;;;;;41.22;15.65;;;4.00;66.90;;;-1.28;100.00;94493.94;4981283;28;20033;-54
2024/01/15 03:25:08;;;;;;;32.17;14.68;;;4.00;67.00;;;-1.29;100.00;94485.28;4984124;28;20038;-54
2024/01/15 03:27:34;;;;;;;40.95;17.13;;;4.00;66.90;;;-1.22;100.00;94490.47;4984447;28;20400;-55
2024/01/15 03:30:00;;;;;;;39.38;16.75;;;4.00;66.90;;;-1.24;100.00;94490.66;4972955;28;20037;-55
2024/01/15 03:32:25;;;;;;;42.33;16.80;;;4.00;66.90;;;-1.24;100.00;94485.44;4984013;28;20022;-55
2024/01/15 03:34:52;;;;;;;42.28;17.02;;;4.10;67.00;;;-1.20;100.00;94486.59;4985540;28;20037;-54
2024/01/15 03:37:18;;;;;;;39.42;15.52;;;4.10;67.00;;;-1.18;100.00;94487.19;4983588;28;20025;-56
2024/01/15 03:39:44;;;;;;;42.50;17.35;;;4.10;67.00;;;-1.18;100.00;94484.56;4985956;28;20033;-56
2024/01/15 03:42:09;;;;;;;35.00;15.02;;;4.10;67.00;;;-1.17;100.00;94480.94;4968572;28;20022;-56
2024/01/15 03:44:35;;;;;;;36.28;15.40;;;4.10;67.00;;;-1.17;100.00;94480.13;4986012;28;20037;-57
2024/01/15 03:47:01;;;;;;;42.72;16.88;;;4.10;66.90;;;-1.18;100.00;94476.72;4971678;28;20030;-58
2024/01/15 03:49:27;;;;;;;36.92;16.42;;;4.20;67.00;;;-1.21;100.00;94477.16;4988078;28;20080;-59
2024/01/15 03:51:53;;;;;;;42.22;16.77;;;4.10;66.90;;;-1.25;100.00;94470.00;4983836;28;20026;-58
2024/01/15 03:54:19;;;;;;;38.22;15.63;;;4.10;66.90;;;-1.27;100.00;94478.03;4986872;28;20075;-56
2024/01/15 03:56:44;;;;;;;34.42;16.00;;;4.10;66.80;;;-1.28;100.00;94481.66;4987808;28;20109;-57
2024/01/15 03:59:10;;;;;;;34.90;15.45;;;4.10;66.80;;;-1.27;100.00;94482.47;4980497;28;20033;-57
2024/01/15 04:01:36;;;;;;;35.17;15.35;;;4.10;66.80;;;-1.25;100.00;94483.84;4983641;28;20079;-54
2024/01/15 04:04:02;;;;;;;37.22;14.75;;;4.10;66.70;;;-1.26;100.00;94481.44;4981428;28;20050;-59
2024/01/15 04:06:28;;;;;;;32.28;14.32;;;4.10;66.70;;;-1.21;100.00;94482.38;4984124;28;20415;-59
2024/01/15 04:08:53;;;;;;;34.42;14.32;;;4.10;66.80;;;-1.21;100.00;94481.59;4988133;28;20156;-58
2024/01/15 04:11:19;;;;;;;35.42;15.95;;;4.10;66.70;;;-1.23;100.00;94471.34;4979850;28;20026;-57
2024/01/15 04:13:45;;;;;;;31.63;14.20;;;4.10;66.70;;;-1.24;100.00;94469.75;4986190;28;20029;-57
2024/01/15 04:16:11;;;;;;;33.08;13.10;;;4.10;66.60;;;-1.22;100.00;94472.97;4983728;28;20026;-57
2024/01/15 04:18:37;;;;;;;33.00;13.65;;;4.10;66.60;;;-1.24;100.00;94468.97;4986092;28;20523;-59
2024/01/15 04:21:06;;;;;;;36.58;14.50;;;4.10;66.50;;;-1.20;100.00;94470.91;4984380;28;20050;-57
2024/01/15 04:23:33;;;;;;;38.13;15.20;;;4.10;66.50;;;-1.21;100.00;94479.78;4985182;28;20024;-59
2024/01/15 04:25:59;;;;;;;36.38;14.57;;;4.10;66.40;;;-1.21;100.00;94478.97;4981337;28;20026;-57
2024/01/15 04:28:25;;;;;;;35.13;14.77;;;4.10;66.40;;;-1.19;100.00;94479.56;4979963;28;20023;-57
2024/01/15 04:30:51;;;;;;;38.17;14.85;;;4.10;66.40;;;-1.17;100.00;94478.31;4983416;28;20057;-59
2024/01/15 04:33:16;;;;;;;30.23;12.73;;;4.20;66.40;;;-1.22;100.00;94467.72;4985735;28;20036;-59
2024/01/15 04:35:42;;;;;;;30.02;11.20;;;4.20;66.30;;;-1.22;100.00;94482.63;4980304;28;20026;-55
2024/01/15 04:38:08;;;;;;;26.77;10.95;;;4.20;66.20;;;-1.24;100.00;94472.38;4982865;28;20472;-58
2024/01/15 04:40:34;;;;;;;27.88;11.35;;;4.20;66.10;;;-1.27;100.00;94478.03;4978486;28;20029;-58
2024/01/15 04:43:00;;;;;;;25.42;11.13;;;4.20;66.10;;;-1.25;100.00;94476.00;4979278;28;20021;-58
2024/01/15 04:45:28;;;;;;;23.80;10.50;;;4.20;66.00;;;-1.27;100.00;94469.41;4983651;28;20038;-54
2024/01/15 04:47:58;;;;;;;28.35;12.23;;;4.20;66.70;;;-1.29;100.00;94461.75;4973206;28;20030;-59
2024/01/15 04:50:24;;;;;;;25.42;11.63;;;4.20;65.80;;;-1.33;100.00;94459.81;4982218;28;20493;-59
2024/01/15 04:52:50;;;;;;;28.58;11.55;;;4.20;65.70;;;-1.31;100.00;94455.97;4984782;28;20079;-58
2024/01/15 04:55:16;;;;;;;28.15;11.52;;;4.10;65.60;;;-1.33;100.00;94452.75;4980897;28;20026;-58
2024/01/15 04:57:42;;;;;;;27.77;11.85;;;4.10;65.60;;;-1.37;100.00;94458.66;4990654;28;20018;-59
2024/01/15 05:00:09;;;;;;;31.23;12.88;;;4.10;65.50;;;-1.39;100.00;94461.47;4972012;28;20382;-58
2024/01/15 05:02:35;;;;;;;25.40;11.65;;;4.10;65.50;;;-1.35;100.00;94465.25;4989265;28;20017;-59
2024/01/15 05:05:00;;;;;;;26.98;11.85;;;4.10;65.50;;;-1.37;100.00;94456.84;4976939;28;20077;-58
2024/01/15 05:07:26;;;;;;;29.20;11.98;;;4.00;65.50;;;-1.30;100.00;94459.38;4988005;28;20030;-58
2024/01/15 05:09:52;;;;;;;31.40;12.88;;;4.00;65.40;;;-1.28;100.00;94452.13;4980516;28;20029;-55
2024/01/15 05:12:18;;;;;;;28.17;11.85;;;4.10;65.50;;;-1.31;100.00;94442.91;4982021;28;20025;-55
2024/01/15 05:14:44;;;;;;;27.67;11.25;;;4.00;65.40;;;-1.30;100.00;94449.72;4985634;28;20030;-59
2024/01/15 05:17:09;;;;;;;28.45;12.43;;;4.00;65.30;;;-1.32;100.00;94454.34;4986377;28;20025;-59
2024/01/15 05:19:35;;;;;;;28.98;12.07;;;4.00;65.30;;;-1.32;100.00;94466.63;4986032;28;20116;-56
2024/01/15 05:22:01;;;;;;;28.05;12.77;;;4.10;65.40;;;-1.32;100.00;94467.41;4983254;28;20046;-57
2024/01/15 05:24:27;;;;;;;34.45;13.63;;;4.00;65.30;;;-1.30;100.00;94462.78;4983806;28;20571;-59
2024/01/15 05:26:53;;;;;;;25.50;11.38;;;4.00;66.10;;;-1.32;100.00;94459.59;4986518;28;20030;-59
2024/01/15 05:29:18;;;;;;;30.55;12.70;;;4.00;65.30;;;-1.31;100.00;94461.19;4974132;28;20049;-54
2024/01/15 05:31:45;;;;;;;30.08;12.70;;;4.00;65.30;;;-1.31;100.00;94461.19;4989680;28;20075;-53
2024/01/15 05:34:11;;;;;;;29.45;12.82;;;4.00;65.30;;;-1.29;100.00;94463.56;4984440;28;20486;-53
2024/01/15 05:36:36;;;;;;;29.92;12.10;;;4.00;65.30;;;-1.29;100.00;94445.28;4989848;28;20090;-59
2024/01/15 05:39:03;;;;;;;27.38;12.30;;;4.00;65.30;;;-1.30;100.00;94454.16;4985717;28;20026;-57
2024/01/15 05:41:28;;;;;;;31.83;12.48;;;4.00;65.30;;;-1.28;100.00;94452.13;4974797;28;20077;-54
2024/01/15 05:43:54;;;;;;;27.77;11.70;;;4.00;65.30;;;-1.31;100.00;94449.94;4983631;28;20431;-59
2024/01/15 05:46:20;;;;;;;29.80;11.70;;;4.00;65.30;;;-1.31;100.00;94445.53;4982075;28;20048;-59
2024/01/15 05:48:46;;;;;;;27.02;12.07;;;4.00;65.20;;;-1.29;100.00;94453.91;4981681;28;20026;-57
2024/01/15 05:51:12;;;;;;;32.42;12.68;;;4.10;65.30;;;-1.33;100.00;94458.00;4985917;28;20041;-58
2024/01/15 05:53:40;;;;;;;24.30;11.07;;;4.00;65.20;;;-1.37;100.00;94464.69;4980121;28;20018;-58
2024/01/15 05:56:06;;;;;;;27.55;11.43;;;4.10;65.20;;;-1.39;100.00;94458.88;4987077;28;20530;-57
2024/01/15 05:58:32;;;;;;;24.80;10.52;;;4.00;65.10;;;-1.46;100.00;94455.53;4977400;28;20026;-59
2024/01/15 06:00:58;;;;;;;25.88;11.77;;;4.10;65.20;;;-1.47;100.00;94449.50;4981457;28;20022;-57
2024/01/15 06:03:23;;;;;;;25.02;11.45;;;4.00;65.10;;;-1.42;100.00;94449.63;4980076;28;20069;-59
2024/01/15 06:05:49;;;;;;;24.98;10.70;;;4.00;65.10;;;-1.44;100.00;94449.06;4981277;28;20468;-57
2024/01/15 06:08:15;;;;;;;22.73;10.43;;;4.00;65.80;;;-1.40;100.00;94445.00;4980064;28;20034;-56
2024/01/15 06:10:41;;;;;;;25.30;11.70;;;4.00;65.10;;;-1.38;100.00;94434.31;4981214;28;20022;-55
2024/01/15 06:13:07;;;;;;;24.60;11.00;;;4.00;65.10;;;-1.35;100.00;94428.66;4980350;28;20579;-54
2024/01/15 06:15:33;;;;;;;25.13;10.60;;;4.00;65.10;;;-1.37;100.00;94440.38;4986430;28;20113;-54
2024/01/15 06:17:58;;;;;;;26.17;10.93;;;4.00;65.00;;;-1.34;100.00;94443.34;4979852;28;20431;-57
2024/01/15 06:20:24;;;;;;;29.58;12.30;;;4.00;65.10;;;-1.30;100.00;94451.53;4984389;28;20042;-58
2024/01/15 06:22:50;;;;;;;24.92;11.82;;;4.00;65.10;;;-1.28;100.00;94452.94;4979200;28;20032;-59
2024/01/15 06:25:16;;;;;;;24.25;10.77;;;4.00;65.10;;;-1.29;100.00;94450.50;4982490;28;20068;-57
2024/01/15 06:27:42;;;;;;;23.65;10.25;;;4.00;65.10;;;-1.24;100.00;94443.63;4981367;28;20391;-58
2024/01/15 06:30:08;;;;;;;28.58;11.20;;;4.00;65.10;;;-1.21;100.00;94442.41;4976782;28;20065;-55
2024/01/15 06:32:34;;;;;;;28.02;11.32;;;4.00;65.10;;;-1.19;100.00;94440.38;4984204;28;20449;-58
2024/01/15 06:35:00;;;;;;;25.60;11.15;;;4.10;65.20;;;-1.22;100.00;94441.59;4981527;28;20057;-58
2024/01/15 06:37:26;;;;;;;28.73;11.93;;;4.10;65.10;;;-1.21;100.00;94443.19;4980475;28;20092;-58
2024/01/15 06:39:52;;;;;;;22.15;10.05;;;4.10;65.00;;;-1.19;100.00;94445.59;4983480;28;20033;-54
2024/01/15 06:42:18;;;;;;;26.50;10.65;;;4.10;65.00;;;-1.18;100.00;94441.97;4970635;28;20022;-55
2024/01/15 06:44:43;;;;;;;27.15;11.35;;;4.10;64.90;;;-1.14;100.00;94440.50;4988853;28;20037;-56
2024/01/15 06:47:09;;;;;;;23.50;10.40;;;4.20;65.00;;;-1.11;100.00;94436.66;4971713;28;20025;-59
2024/01/15 06:49:35;;;;;;;23.02;10.27;;;4.20;65.70;;;-1.12;100.00;94440.28;4985074;28;20215;-57
2024/01/15 06:52:01;;;;;;;26.27;10.98;;;4.20;64.90;;;-1.12;100.00;94446.31;4978397;28;20026;-54
2024/01/15 06:54:27;;;;;;;24.73;10.63;;;4.20;65.50;;;-1.15;100.00;94448.56;4982058;28;20117;-55
2024/01/15 06:56:52;;;;;;;25.48;10.48;;;4.20;64.70;;;-1.19;100.00;94441.16;4975630;28;20022;-53
2024/01/15 06:59:18;;;;;;;24.33;10.43;;;4.30;64.70;;;-1.13;100.00;94438.66;4967479;28;20516;-53
2024/01/15 07:01:44;;;;;;;32.20;13.77;;;4.20;64.60;;;-1.12;100.00;94430.63;4974836;28;20030;-55
2024/01/15 07:04:10;;;;;;;28.55;11.52;;;4.30;64.70;;;-1.13;100.00;94439.47;4976688;28;20033;-58
2024/01/15 07:06:36;;;;;;;25.52;10.88;;;4.30;64.70;;;-1.09;100.00;94439.84;4980269;28;20456;-57
2024/01/15 07:09:02;;;;;;;23.75;10.77;;;4.30;64.80;;;-1.14;100.00;94430.03;4985513;28;20056;-54
2024/01/15 07:11:28;;;;;;;27.33;11.88;;;4.30;64.70;;;-1.14;100.00;94435.25;4974146;28;20640;-58
2024/01/15 07:13:53;;;;;;;21.33;10.18;;;4.30;64.70;;;-1.11;100.00;94441.88;4985364;28;20030;-55
2024/01/15 07:16:19;;;;;;;22.25;10.10;;;4.30;64.60;;;-1.16;100.00;94439.91;4978565;28;20034;-59
2024/01/15 07:18:45;;;;;;;20.58;9.40;;;4.30;64.60;;;-1.13;100.00;94446.50;4984163;28;20537;-58
2024/01/15 07:21:11;;;;;;;22.20;9.73;;;4.30;64.60;;;-1.19;100.00;94453.44;4984417;28;20168;-58
2024/01/15 07:23:37;;;;;;;22.38;9.65;;;4.30;64.60;;;-1.21;100.00;94453.63;4984240;28;20544;-53
2024/01/15 07:26:05;;;;;;;22.52;9.77;;;4.20;64.50;;;-1.17;100.00;94449.56;4984025;28;20041;-57
2024/01/15 07:28:31;;;;;;;24.70;10.13;;;4.30;64.60;;;-1.17;100.00;94446.94;4987908;28;20029;-55
2024/01/15 07:30:57;;;;;;;21.63;9.40;;;4.20;64.70;;;-1.13;100.00;94438.66;4983849;28;20076;-58
2024/01/15 07:33:23;;;;;;;23.48;9.90;;;4.20;64.60;;;-1.09;100.00;94434.63;4982266;28;20133;-58
2024/01/15 07:35:49;;;;;;;21.20;9.98;;;4.20;64.70;;;-1.09;100.00;94445.88;4983225;28;20116;-55
2024/01/15 07:38:15;;;;;;;23.67;9.75;;;4.20;64.70;;;-1.06;100.00;94455.88;4991467;28;20022;-58
2024/01/15 07:40:40;;;;;;;22.13;10.02;;;4.30;64.80;;;-1.05;100.00;94451.44;4985172;28;20017;-54
2024/01/15 07:43:06;;;;;;;21.60;9.63;;;4.30;64.80;;;-1.06;100.00;94455.09;4985827;28;20810;-53
2024/01/15 07:45:32;;;;;;;25.20;10.70;;;4.30;64.70;;;-1.02;100.00;94449.19;4987768;28;20084;-58
2024/01/15 07:47:58;;;;;;;22.52;9.95;;;4.30;64.70;;;-1.02;100.00;94456.25;4983221;28;20028;-55
2024/01/15 07:50:24;;;;;;;24.15;10.07;;;4.30;64.70;;;-1.01;100.00;94452.59;4989445;28;20072;-57
2024/01/15 07:52:49;;;;;;;20.40;9.55;;;4.30;64.70;;;-1.03;100.00;94455.44;4982605;28;20536;-59
2024/01/15 07:55:15;;;;;;;21.20;10.32;;;4.40;64.70;;;-1.01;100.00;94460.44;4989716;28;20049;-58
2024/01/15 07:57:41;;;;;;;22.75;10.55;;;4.40;64.60;;;-0.98;100.00;94452.97;4989736;28;20024;-58
2024/01/15 08:00:09;;;;;;;22.05;10.63;;;4.40;64.60;;;-0.99;100.00;94451.38;4983130;28;20438;-57
2024/01/15 08:02:34;;;;;;;23.67;9.38;;;4.40;64.50;;;-0.93;100.00;94453.09;4988375;28;20117;-57
2024/01/15 08:05:00;;;;;;;23.58;10.07;;;4.50;64.60;;;-0.91;100.00;94455.47;4976131;28;20120;-56
2024/01/15 08:07:26;;;;;;;19.90;9.30;;;4.50;64.50;;;-0.91;100.00;94458.09;4982345;28;20029;-58
2024/01/15 08:09:53;;;;;;;25.15;9.55;;;4.50;64.50;;;-0.88;100.00;94462.88;4987863;28;20033;-58
2024/01/15 08:12:19;;;;;;;19.45;9.27;;;4.60;64.40;;;-0.86;100.00;94458.25;4978772;28;20018;-57
2024/01/15 08:14:45;;;;;;;16.77;8.15;;;4.60;64.30;;;-0.89;100.00;94461.31;4987765;28;20022;-55
2024/01/15 08:17:11;;;;;;;17.50;8.25;;;4.60;64.20;;;-0.90;99.83;94462.34;4976578;28;20404;-59
2024/01/15 08:19:37;;;;;;;18.13;7.97;;;4.60;64.10;;;-0.85;99.09;94457.22;4986402;28;20492;-53
2024/01/15 08:22:03;;;;;;;17.65;7.53;;;4.60;64.00;;;-0.79;99.57;94458.16;4988819;28;20026;-55
2024/01/15 08:24:29;;;;;;;15.30;7.72;;;4.70;64.00;;;-0.84;98.36;94453.59;4990178;28;20033;-54
2024/01/15 08:26:56;;;;;;;15.40;7.50;;;4.70;63.80;;;-0.78;98.60;94457.94;4992636;28;20033;-53
2024/01/15 08:29:22;;;;;;;19.30;7.95;;;4.70;63.70;;;-0.79;98.92;94452.94;4982023;28;20385;-56
2024/01/15 08:31:48;;;;;;;13.35;7.53;;;4.70;63.60;;;-0.79;98.62;94458.94;4983282;28;20026;-55
2024/01/15 08:34:14;;;;;;;13.85;7.30;;;4.80;63.60;;;-0.74;97.23;94459.09;4989853;28;20496;-57
2024/01/15 08:36:40;;;;;;;14.10;6.97;;;4.80;63.50;;;-0.68;97.70;94459.25;4984080;28;20025;-54
2024/01/15 08:39:08;;;;;;;17.15;6.65;;;4.80;63.50;;;-0.72;97.18;94461.50;4987054;28;20585;-56
2024/01/15 08:41:35;;;;;;;16.23;7.22;;;4.80;63.30;;;-0.73;96.50;94465.91;4987062;28;20025;-55
2024/01/15 08:44:02;;;;;;;13.98;7.07;;;4.90;63.30;;;-0.67;97.29;94464.25;4984867;28;20034;-57
2024/01/15 08:46:28;;;;;;;15.57;7.45;;;4.90;63.30;;;-0.67;97.56;94469.47;4983841;28;20033;-56
2024/01/15 08:48:54;;;;;;;13.30;6.55;;;4.90;63.20;;;-0.64;97.34;94471.66;4989643;28;20029;-56
2024/01/15 08:51:20;;;;;;;15.60;6.93;;;4.90;63.20;;;-0.63;97.29;94472.44;4991011;28;20021;-57
2024/01/15 08:53:46;;;;;;;14.63;6.88;;;4.90;63.10;;;-0.56;98.00;94476.56;4984353;28;20029;-57
2024/01/15 08:56:12;;;;;;;15.38;7.18;;;4.90;63.10;;;-0.65;97.25;94474.50;4990883;28;20030;-55
2024/01/15 08:58:38;;;;;;;12.35;6.50;;;5.00;63.00;;;-0.59;97.29;94471.78;4985451;28;20500;-58
2024/01/15 09:01:04;;;;;;;15.30;6.88;;;4.90;62.90;;;-0.57;97.20;94477.56;4982658;28;20408;-53
2024/01/15 09:03:30;;;;;;;14.13;7.30;;;5.00;63.00;;;-0.54;97.24;94471.09;4989961;28;20133;-54
2024/01/15 09:05:56;;;;;;;14.82;7.05;;;5.00;63.00;;;-0.60;97.01;94467.56;4984231;28;20029;-55
2024/01/15 09:08:22;;;;;;;12.95;6.35;;;5.00;62.90;;;-0.64;97.40;94478.69;4988671;28;20036;-55
2024/01/15 09:10:48;;;;;;;13.00;6.45;;;5.00;62.80;;;-0.61;97.00;94463.34;4981571;28;20084;-55
2024/01/15 09:13:14;;;;;;;13.13;7.07;;;5.00;62.80;;;-0.55;97.23;94477.38;4989436;28;20025;-55
2024/01/15 09:15:39;;;;;;;13.50;7.00;;;5.00;62.80;;;-0.51;97.50;94471.44;4991129;28;20404;-59
2024/01/15 09:18:06;;;;;;;14.05;6.80;;;5.10;62.90;;;-0.49;96.77;94468.63;4984928;28;20033;-58
2024/01/15 09:20:31;;;;;;;13.65;7.03;;;5.10;62.80;;;-0.57;95.11;94472.34;4990628;28;20052;-59
2024/01/15 09:22:57;;;;;;;13.38;6.75;;;5.10;62.70;;;-0.50;96.40;94472.28;4981070;28;20031;-55
2024/01/15 09:25:23;;;;;;;15.38;7.30;;;5.10;62.60;;;-0.52;95.43;94472.47;4990151;28;20099;-56
2024/01/15 09:27:49;;;;;;;13.50;6.50;;;5.10;62.50;;;-0.51;94.39;94466.22;4989771;28;20100;-55
2024/01/15 09:30:15;;;;;;;10.60;5.53;;;5.10;62.40;;;-0.48;94.68;94470.22;4977826;28;20028;-57
2024/01/15 09:32:41;;;;;;;11.02;5.78;;;5.10;62.40;;;-0.44;94.76;94471.34;4989221;28;20040;-57
2024/01/15 09:35:08;;;;;;;13.43;5.57;;;5.20;62.40;;;-0.38;95.21;94465.25;4987619;28;20033;-59
2024/01/15 09:37:34;;;;;;;13.18;5.78;;;5.20;62.40;;;-0.35;93.44;94459.56;4978669;28;20013;-59
2024/01/15 09:40:00;;;;;;;10.85;5.53;;;5.20;62.30;;;-0.40;92.71;94464.69;4983919;28;20396;-56
2024/01/15 09:42:27;;;;;;;10.57;5.43;;;5.30;62.10;;;-0.35;93.13;94467.41;4983061;28;20017;-57
2024/01/15 09:44:53;;;;;;;13.13;5.75;;;5.30;62.00;;;-0.31;92.46;94470.41;4981468;28;20037;-57
2024/01/15 09:47:21;;;;;;;9.07;4.80;;;5.30;61.80;;;-0.29;92.84;94469.13;4972768;28;20056;-55
2024/01/15 09:49:48;;;;;;;9.40;5.00;;;5.40;61.80;;;-0.33;90.84;94461.97;4973985;28;20376;-53
2024/01/15 09:52:18;;;;;;;8.23;4.40;;;5.40;61.70;;;-0.39;89.94;94461.03;4981607;28;20023;-55
2024/01/15 09:54:46;;;;;;;10.30;4.28;;;5.40;61.60;;;-0.32;89.36;94460.94;4990240;28;20434;-55
2024/01/15 09:57:12;;;;;;;10.05;4.57;;;5.40;61.50;;;-0.30;90.06;94461.53;4991668;28;20108;-55
2024/01/15 09:59:43;;;;;;;8.38;4.38;;;5.40;61.30;;;-0.24;89.90;94466.66;4981033;28;20459;-57
2024/01/15 10:02:17;;;;;;;8.82;4.43;;;5.40;61.20;;;-0.17;90.11;94463.13;4989970;28;20032;-54